Time;durP1;ratioP1;P1;durP2;ratioP2;P2;SDS_P1;SDS_P2;PMS_P1;PMS_P2;Temp;Humidity;BMP_temperature;BMP_pressure;BME280_temperature;BME280_humidity;BME280_pressure;Samples;Min_cycle;Max_cycle;Signal;HPM_P1;HPM_P2
2020/12/13 00:00:59;;;;;;;16.53;15.00;;;6.70;99.90;;;;;;5082756;28;20739;-84
2020/12/13 00:03:26;;;;;;;16.23;14.93;;;6.60;99.90;;;;;;5083700;28;20668;-84
2020/12/13 00:05:53;;;;;;;16.60;15.23;;;6.60;99.90;;;;;;5081714;28;20638;-84
2020/12/13 00:08:20;;;;;;;18.80;17.30;;;6.60;99.90;;;;;;5078773;28;21201;-84
2020/12/13 00:10:47;;;;;;;17.23;15.77;;;6.60;99.90;;;;;;5079606;28;20628;-84
2020/12/13 00:13:13;;;;;;;17.20;15.80;;;6.60;99.90;;;;;;5082354;28;20655;-85
2020/12/13 00:15:40;;;;;;;15.60;14.27;;;6.60;99.90;;;;;;5083619;28;20629;-84
2020/12/13 00:18:07;;;;;;;16.50;15.10;;;6.60;99.90;;;;;;5082553;28;20643;-84
2020/12/13 00:20:34;;;;;;;14.73;13.43;;;6.50;99.90;;;;;;5081069;28;20688;-83
2020/12/13 00:23:01;;;;;;;15.50;14.10;;;6.50;99.90;;;;;;5082779;28;20650;-83
2020/12/13 00:25:27;;;;;;;14.57;13.33;;;6.60;99.90;;;;;;5078651;28;21230;-87
2020/12/13 00:27:53;;;;;;;14.47;13.30;;;6.50;99.90;;;;;;5089960;28;20626;-84
2020/12/13 00:30:22;;;;;;;14.33;13.13;;;6.60;99.90;;;;;;5086319;28;20619;-85
2020/12/13 00:32:48;;;;;;;15.90;14.30;;;6.60;99.90;;;;;;5084879;28;20611;-84
2020/12/13 00:35:15;;;;;;;17.30;15.80;;;6.60;99.90;;;;;;5087639;28;20621;-84
2020/12/13 00:37:42;;;;;;;18.03;16.30;;;6.50;99.90;;;;;;5082700;28;20628;-84
2020/12/13 00:40:09;;;;;;;17.40;15.90;;;6.60;99.90;;;;;;5085137;28;20633;-84
2020/12/13 00:42:35;;;;;;;18.53;16.93;;;6.50;99.90;;;;;;5084393;28;20646;-84
2020/12/13 00:45:01;;;;;;;18.63;16.83;;;6.50;99.90;;;;;;5085904;28;21245;-84
2020/12/13 00:47:28;;;;;;;18.60;16.70;;;6.60;99.90;;;;;;5088391;28;20625;-84
2020/12/13 00:49:54;;;;;;;19.60;17.90;;;6.60;99.90;;;;;;5090344;28;20710;-84
2020/12/13 00:52:20;;;;;;;21.93;20.03;;;6.60;99.90;;;;;;5090117;28;20627;-84
2020/12/13 00:54:46;;;;;;;21.83;19.83;;;6.60;99.90;;;;;;5090753;28;21284;-85
2020/12/13 00:57:13;;;;;;;17.10;15.63;;;6.60;99.90;;;;;;5090067;28;20644;-85
2020/12/13 00:59:40;;;;;;;19.20;17.43;;;6.50;99.90;;;;;;5086922;28;20631;-85
2020/12/13 01:02:06;;;;;;;20.00;18.30;;;6.50;99.90;;;;;;5086174;28;20784;-85
2020/12/13 01:04:33;;;;;;;18.70;16.90;;;6.50;99.90;;;;;;5088498;28;21537;-85
2020/12/13 01:07:03;;;;;;;18.70;17.00;;;6.50;99.90;;;;;;5088322;28;21143;-85
2020/12/13 01:09:29;;;;;;;21.20;19.40;;;6.50;99.90;;;;;;5089675;28;21472;-84
2020/12/13 01:11:55;;;;;;;20.10;18.40;;;6.50;99.90;;;;;;5090611;28;20635;-86
2020/12/13 01:14:24;;;;;;;20.50;18.60;;;6.50;99.90;;;;;;5088994;28;20658;-85
2020/12/13 01:16:50;;;;;;;21.00;18.93;;;6.50;99.90;;;;;;5086174;28;20636;-84
2020/12/13 01:19:16;;;;;;;19.00;17.40;;;6.50;99.90;;;;;;5088632;28;20629;-85
2020/12/13 01:21:43;;;;;;;18.70;17.20;;;6.50;99.90;;;;;;5088363;28;20656;-84
2020/12/13 01:24:09;;;;;;;19.67;17.87;;;6.50;99.90;;;;;;5085989;28;20652;-85
2020/12/13 01:26:35;;;;;;;18.67;17.03;;;6.50;99.90;;;;;;5089333;28;20627;-85
2020/12/13 01:29:01;;;;;;;18.30;16.60;;;6.50;99.90;;;;;;5086787;28;20640;-85
2020/12/13 01:31:29;;;;;;;17.80;16.13;;;6.50;99.90;;;;;;5087378;28;20623;-85
2020/12/13 01:33:55;;;;;;;17.63;15.93;;;6.40;99.90;;;;;;5082807;28;21015;-85
2020/12/13 01:36:23;;;;;;;17.40;15.90;;;6.40;99.90;;;;;;5088989;28;20632;-84
2020/12/13 01:38:50;;;;;;;17.10;15.60;;;6.40;99.90;;;;;;5085849;28;20635;-85
2020/12/13 01:41:17;;;;;;;16.83;15.17;;;6.30;99.90;;;;;;5086518;28;20653;-85
2020/12/13 01:43:56;;;;;;;18.00;16.47;;;6.30;99.90;;;;;;5087705;28;20647;-84
2020/12/13 01:46:22;;;;;;;16.17;14.83;;;6.30;99.90;;;;;;5089179;28;20630;-85
2020/12/13 01:48:55;;;;;;;16.80;15.30;;;6.30;99.90;;;;;;5089206;28;20621;-85
2020/12/13 01:51:31;;;;;;;18.03;16.13;;;6.30;99.90;;;;;;5086154;28;20681;-85
2020/12/13 01:54:00;;;;;;;18.87;16.97;;;6.20;99.90;;;;;;5088363;28;20650;-84
2020/12/13 01:56:29;;;;;;;17.17;15.57;;;6.30;99.90;;;;;;5085958;28;20642;-85
2020/12/13 01:59:00;;;;;;;15.80;14.27;;;6.20;99.90;;;;;;5084638;28;21152;-85
2020/12/13 02:01:28;;;;;;;16.53;14.93;;;6.20;99.90;;;;;;5085072;28;20669;-84
2020/12/13 02:03:59;;;;;;;16.60;15.13;;;6.10;99.90;;;;;;5086358;28;20651;-84
2020/12/13 02:06:30;;;;;;;16.73;15.20;;;6.10;99.90;;;;;;5087405;28;21169;-84
2020/12/13 02:08:56;;;;;;;16.90;15.20;;;6.10;99.90;;;;;;5088198;28;20614;-84
2020/12/13 02:11:23;;;;;;;15.80;14.40;;;6.00;99.90;;;;;;5085621;28;21176;-85
2020/12/13 02:13:51;;;;;;;16.73;15.23;;;6.00;99.90;;;;;;5086076;28;20654;-84
2020/12/13 02:16:18;;;;;;;15.50;14.17;;;6.00;99.90;;;;;;5086854;28;20639;-84
2020/12/13 02:18:44;;;;;;;17.50;15.67;;;6.10;99.90;;;;;;5088052;28;20654;-85
2020/12/13 02:21:12;;;;;;;16.40;15.00;;;6.10;99.90;;;;;;5084515;28;20679;-84
2020/12/13 02:23:40;;;;;;;19.70;17.93;;;6.20;99.90;;;;;;5087657;28;20657;-84
2020/12/13 02:26:07;;;;;;;20.30;18.40;;;6.20;99.90;;;;;;5085947;28;20652;-84
2020/12/13 02:28:35;;;;;;;17.30;15.60;;;6.20;99.90;;;;;;5086861;28;20590;-84
2020/12/13 02:31:02;;;;;;;17.37;15.77;;;6.20;99.90;;;;;;5086271;28;20948;-84
2020/12/13 02:33:29;;;;;;;16.43;15.13;;;6.20;99.90;;;;;;5087056;28;20685;-84
2020/12/13 02:35:55;;;;;;;16.90;15.17;;;6.20;99.90;;;;;;5086954;28;20651;-85
2020/12/13 02:38:21;;;;;;;18.13;16.33;;;6.20;99.90;;;;;;5087377;28;20625;-86
2020/12/13 02:40:48;;;;;;;18.47;16.47;;;6.10;99.90;;;;;;5086627;28;20683;-85
2020/12/13 02:43:15;;;;;;;18.50;16.60;;;6.10;99.90;;;;;;5085408;28;20629;-85
2020/12/13 02:45:41;;;;;;;20.30;18.30;;;6.10;99.90;;;;;;5087629;28;20653;-85
2020/12/13 02:48:08;;;;;;;17.70;16.20;;;6.20;99.90;;;;;;5087932;28;21212;-85
2020/12/13 02:50:34;;;;;;;19.40;17.50;;;6.20;99.90;;;;;;5085902;28;20669;-84
2020/12/13 02:53:00;;;;;;;17.57;15.97;;;6.20;99.90;;;;;;5086388;28;20622;-84
2020/12/13 02:55:26;;;;;;;18.23;16.60;;;6.20;99.90;;;;;;5086264;28;20661;-86
2020/12/13 02:57:53;;;;;;;17.70;16.00;;;6.30;99.90;;;;;;5087375;28;21372;-86
2020/12/13 03:00:20;;;;;;;18.53;16.87;;;6.20;99.90;;;;;;5087608;28;20654;-86
2020/12/13 03:02:46;;;;;;;20.97;19.10;;;6.30;99.90;;;;;;5087954;28;20659;-86
2020/12/13 03:05:12;;;;;;;19.20;17.60;;;6.40;99.90;;;;;;5086222;28;21135;-85
2020/12/13 03:07:39;;;;;;;18.33;16.63;;;6.30;99.90;;;;;;5085368;28;20640;-84
2020/12/13 03:10:05;;;;;;;19.97;17.97;;;6.30;99.90;;;;;;5083032;28;20647;-84
2020/12/13 03:12:31;;;;;;;19.43;17.53;;;6.30;99.90;;;;;;5083527;28;20634;-84
2020/12/13 03:14:58;;;;;;;18.27;16.67;;;6.30;99.90;;;;;;5085432;28;20617;-84
2020/12/13 03:17:25;;;;;;;18.27;16.67;;;6.30;99.90;;;;;;5081541;28;20675;-84
2020/12/13 03:19:51;;;;;;;17.20;15.50;;;6.20;99.90;;;;;;5087159;28;20752;-84
2020/12/13 03:22:17;;;;;;;15.73;14.43;;;6.20;99.90;;;;;;5085565;28;21014;-84
2020/12/13 03:24:43;;;;;;;15.70;14.30;;;6.20;99.90;;;;;;5086646;28;20631;-84
2020/12/13 03:27:10;;;;;;;15.67;14.17;;;6.20;99.90;;;;;;5084278;28;21046;-84
2020/12/13 03:29:36;;;;;;;16.30;14.90;;;6.10;99.90;;;;;;5087077;28;20705;-84
2020/12/13 03:32:04;;;;;;;14.20;12.90;;;6.20;99.90;;;;;;5079678;28;20639;-84
2020/12/13 03:34:30;;;;;;;14.30;12.97;;;6.20;99.90;;;;;;5086714;28;20633;-83
2020/12/13 03:36:56;;;;;;;16.20;14.70;;;6.20;99.90;;;;;;5087473;28;20666;-83
2020/12/13 03:39:22;;;;;;;14.83;13.53;;;6.30;99.90;;;;;;5086274;28;20634;-84
2020/12/13 03:41:49;;;;;;;14.67;13.17;;;6.30;99.90;;;;;;5083476;28;20960;-84
2020/12/13 03:44:15;;;;;;;14.17;12.53;;;6.20;99.90;;;;;;5086313;28;20647;-85
2020/12/13 03:46:42;;;;;;;14.23;12.93;;;6.20;99.90;;;;;;5082577;28;20656;-85
2020/12/13 03:49:09;;;;;;;12.43;11.43;;;6.20;99.90;;;;;;5086223;28;20702;-85
2020/12/13 03:51:35;;;;;;;10.90;9.93;;;6.20;99.90;;;;;;5084727;28;20644;-84
2020/12/13 03:54:01;;;;;;;12.70;11.57;;;6.10;99.90;;;;;;5086911;28;20623;-85
2020/12/13 03:56:28;;;;;;;15.10;13.60;;;6.10;99.90;;;;;;5084840;28;20657;-85
2020/12/13 03:58:54;;;;;;;18.57;16.73;;;6.20;99.90;;;;;;5087348;28;20626;-85
2020/12/13 04:01:21;;;;;;;15.53;14.13;;;6.20;99.90;;;;;;5087207;28;21233;-85
2020/12/13 04:03:47;;;;;;;17.50;15.93;;;6.30;99.90;;;;;;5087839;28;20624;-84
2020/12/13 04:06:14;;;;;;;17.13;15.60;;;6.30;99.90;;;;;;5088244;28;20757;-84
2020/12/13 04:08:40;;;;;;;18.73;17.03;;;6.30;99.90;;;;;;5087277;28;20622;-84
2020/12/13 04:11:06;;;;;;;17.20;15.77;;;6.30;99.90;;;;;;5086474;28;20652;-84
2020/12/13 04:13:33;;;;;;;17.60;16.00;;;6.30;99.90;;;;;;5083372;28;20631;-84
2020/12/13 04:15:59;;;;;;;18.00;16.40;;;6.30;99.90;;;;;;5084766;28;20628;-85
2020/12/13 04:18:25;;;;;;;16.17;14.77;;;6.30;99.90;;;;;;5086131;28;20662;-83
2020/12/13 04:20:52;;;;;;;15.47;14.17;;;6.30;99.90;;;;;;5084121;28;20663;-83
2020/12/13 04:23:19;;;;;;;14.90;13.57;;;6.20;99.90;;;;;;5086998;28;20652;-84
2020/12/13 04:25:45;;;;;;;13.47;12.03;;;6.20;99.90;;;;;;5087865;28;20628;-83
2020/12/13 04:28:11;;;;;;;13.77;12.57;;;6.20;99.90;;;;;;5085992;28;20650;-83
2020/12/13 04:30:38;;;;;;;13.77;12.57;;;6.20;99.90;;;;;;5086375;28;20626;-83
2020/12/13 04:33:06;;;;;;;14.57;13.17;;;6.20;99.90;;;;;;5084911;28;20633;-83
2020/12/13 04:35:32;;;;;;;14.10;12.70;;;6.20;99.90;;;;;;5087953;28;21231;-83
2020/12/13 04:37:58;;;;;;;17.97;14.17;;;6.30;99.90;;;;;;5086922;28;20635;-84
2020/12/13 04:40:25;;;;;;;15.10;13.90;;;6.30;99.90;;;;;;5087296;28;20737;-83
2020/12/13 04:42:53;;;;;;;14.63;13.37;;;6.30;99.90;;;;;;5088918;28;20660;-84
2020/12/13 04:45:21;;;;;;;14.73;13.50;;;6.30;99.90;;;;;;5089333;28;20645;-82
2020/12/13 04:48:01;;;;;;;13.40;12.30;;;6.30;99.90;;;;;;5089242;28;20678;-83
2020/12/13 04:50:30;;;;;;;13.70;12.50;;;6.30;99.90;;;;;;5085289;28;21305;-83
2020/12/13 04:52:57;;;;;;;12.20;11.10;;;6.30;99.90;;;;;;5085256;28;20631;-83
2020/12/13 04:55:23;;;;;;;11.53;10.53;;;6.30;99.90;;;;;;5089104;28;20617;-83
2020/12/13 04:57:51;;;;;;;13.00;11.93;;;6.30;99.90;;;;;;5085593;28;20640;-81
2020/12/13 05:00:18;;;;;;;12.20;11.10;;;6.30;99.90;;;;;;5088308;28;20650;-83
2020/12/13 05:02:44;;;;;;;12.00;11.00;;;6.30;99.90;;;;;;5084543;28;21235;-82
2020/12/13 05:05:11;;;;;;;10.57;9.67;;;6.30;99.90;;;;;;5089679;28;20635;-82
2020/12/13 05:07:38;;;;;;;11.43;10.20;;;6.30;99.90;;;;;;5085204;28;20671;-83
2020/12/13 05:10:04;;;;;;;9.73;8.93;;;6.30;99.90;;;;;;5088550;28;20620;-83
2020/12/13 05:12:30;;;;;;;8.47;7.77;;;6.30;99.90;;;;;;5086586;28;20632;-83
2020/12/13 05:15:01;;;;;;;10.10;9.27;;;6.30;99.90;;;;;;5088564;28;20616;-83
2020/12/13 05:17:27;;;;;;;9.57;8.67;;;6.30;99.90;;;;;;5084037;28;20659;-83
2020/12/13 05:19:53;;;;;;;8.40;7.70;;;6.30;99.90;;;;;;5088262;28;20639;-83
2020/12/13 05:22:20;;;;;;;10.20;9.20;;;6.30;99.90;;;;;;5085582;28;20669;-83
2020/12/13 05:24:47;;;;;;;8.47;7.73;;;6.40;99.90;;;;;;5086999;28;20994;-83
2020/12/13 05:27:13;;;;;;;8.30;7.70;;;6.40;99.90;;;;;;5084744;28;20645;-83
2020/12/13 05:29:44;;;;;;;8.87;8.07;;;6.40;99.90;;;;;;5083016;28;20628;-83
2020/12/13 05:32:13;;;;;;;8.50;7.80;;;6.40;99.90;;;;;;5081824;28;20751;-84
2020/12/13 05:34:41;;;;;;;8.53;7.87;;;6.40;99.90;;;;;;5089284;28;20643;-85
2020/12/13 05:37:14;;;;;;;8.60;7.80;;;6.40;99.90;;;;;;5087103;28;21254;-84
2020/12/13 05:39:41;;;;;;;8.70;7.93;;;6.40;99.90;;;;;;5086711;28;21010;-84
2020/12/13 05:42:08;;;;;;;9.37;8.63;;;6.40;99.90;;;;;;5085263;28;20672;-83
2020/12/13 05:44:52;;;;;;;9.87;9.07;;;6.50;99.90;;;;;;5087249;28;20660;-84
2020/12/13 05:47:29;;;;;;;8.73;8.03;;;6.50;99.90;;;;;;5085774;28;20959;-83
2020/12/13 05:50:23;;;;;;;9.90;9.10;;;6.50;99.90;;;;;;5083008;28;20644;-83
2020/12/13 05:52:50;;;;;;;9.60;8.67;;;6.50;99.90;;;;;;5084609;28;20631;-83
2020/12/13 05:55:19;;;;;;;8.57;7.87;;;6.50;99.90;;;;;;5086312;28;20647;-83
2020/12/13 05:57:48;;;;;;;8.33;7.53;;;6.50;99.90;;;;;;5087818;28;20615;-83
2020/12/13 06:00:16;;;;;;;8.73;8.03;;;6.50;99.90;;;;;;5085764;28;21004;-83
2020/12/13 06:02:46;;;;;;;9.27;8.50;;;6.50;99.90;;;;;;5086590;28;20662;-83
2020/12/13 06:05:15;;;;;;;8.47;7.70;;;6.50;99.90;;;;;;5085745;28;21239;-83
2020/12/13 06:07:47;;;;;;;8.90;8.00;;;6.50;99.90;;;;;;5086634;28;20638;-82
2020/12/13 06:10:23;;;;;;;8.87;8.23;;;6.50;99.90;;;;;;5086759;28;21367;-84
2020/12/13 06:12:58;;;;;;;9.17;8.27;;;6.50;99.90;;;;;;5081883;28;20685;-83
2020/12/13 06:15:27;;;;;;;8.37;7.47;;;6.50;99.90;;;;;;5084529;28;20655;-84
2020/12/13 06:17:54;;;;;;;10.30;9.43;;;6.50;99.90;;;;;;5085426;28;20724;-83
2020/12/13 06:20:21;;;;;;;8.10;7.33;;;6.60;99.90;;;;;;5085569;28;20635;-83
2020/12/13 06:22:50;;;;;;;9.20;8.50;;;6.60;99.90;;;;;;5086939;28;20656;-83
2020/12/13 06:25:17;;;;;;;7.87;7.27;;;6.50;99.90;;;;;;5084656;28;20646;-84
2020/12/13 06:27:43;;;;;;;9.70;7.77;;;6.50;99.90;;;;;;5087009;28;20609;-84
2020/12/13 06:30:10;;;;;;;8.50;7.80;;;6.60;99.90;;;;;;5082256;28;20639;-83
2020/12/13 06:32:39;;;;;;;8.00;7.30;;;6.60;99.90;;;;;;5085119;28;20616;-83
2020/12/13 06:35:08;;;;;;;7.17;6.47;;;6.60;99.90;;;;;;5086869;28;20653;-84
2020/12/13 06:37:37;;;;;;;8.43;7.83;;;6.60;99.90;;;;;;5087818;28;20630;-82
2020/12/13 06:40:07;;;;;;;8.23;7.53;;;6.50;99.90;;;;;;5083935;28;20638;-82
2020/12/13 06:42:39;;;;;;;8.43;7.73;;;6.50;99.90;;;;;;5085972;28;20740;-83
2020/12/13 06:45:07;;;;;;;8.47;7.67;;;6.50;99.90;;;;;;5085301;28;20664;-83
2020/12/13 06:47:37;;;;;;;9.43;8.63;;;6.50;99.90;;;;;;5085504;28;21196;-83
2020/12/13 06:50:04;;;;;;;7.93;7.33;;;6.50;99.90;;;;;;5086539;28;20623;-83
2020/12/13 06:52:33;;;;;;;6.77;6.10;;;6.50;99.90;;;;;;5086611;28;20638;-83
2020/12/13 06:55:04;;;;;;;7.20;6.60;;;6.50;99.90;;;;;;5085300;28;20641;-83
2020/12/13 06:57:32;;;;;;;7.30;6.70;;;6.50;99.90;;;;;;5081450;28;20645;-84
2020/12/13 07:00:06;;;;;;;7.93;7.33;;;6.50;99.90;;;;;;5086116;28;20943;-85
2020/12/13 07:02:45;;;;;;;8.13;7.37;;;6.50;99.90;;;;;;5086175;28;20658;-85
2020/12/13 07:05:12;;;;;;;8.33;7.53;;;6.50;99.90;;;;;;5085521;28;20658;-84
2020/12/13 07:07:42;;;;;;;8.30;7.50;;;6.50;99.90;;;;;;5086927;28;20718;-84
2020/12/13 07:10:09;;;;;;;6.23;5.83;;;6.50;99.90;;;;;;5085872;28;20652;-84
2020/12/13 07:12:36;;;;;;;8.10;7.40;;;6.50;99.90;;;;;;5084081;28;20629;-86
2020/12/13 07:15:13;;;;;;;7.60;6.90;;;6.50;99.90;;;;;;5085448;28;20644;-84
2020/12/13 07:17:43;;;;;;;8.33;7.50;;;6.50;99.90;;;;;;5085065;28;20672;-84
2020/12/13 07:20:10;;;;;;;7.33;6.63;;;6.60;99.90;;;;;;5087119;28;20609;-84
2020/12/13 07:22:37;;;;;;;7.53;6.93;;;6.70;99.90;;;;;;5085912;28;20683;-84
2020/12/13 07:25:04;;;;;;;6.37;5.77;;;6.70;99.90;;;;;;5083443;28;21101;-83
2020/12/13 07:27:32;;;;;;;6.83;6.33;;;6.70;99.90;;;;;;5085406;28;20635;-83
2020/12/13 07:29:59;;;;;;;7.13;6.43;;;7.00;99.90;;;;;;5085207;28;20637;-85
2020/12/13 07:32:26;;;;;;;6.30;5.70;;;7.00;99.90;;;;;;5083296;28;20645;-83
2020/12/13 07:34:53;;;;;;;6.83;6.33;;;6.90;99.90;;;;;;5085873;28;20632;-83
2020/12/13 07:37:21;;;;;;;7.27;6.67;;;6.90;99.90;;;;;;5086308;28;20629;-83
2020/12/13 07:39:48;;;;;;;7.60;6.83;;;6.80;99.90;;;;;;5085339;28;20625;-83
2020/12/13 07:42:15;;;;;;;15.30;13.87;;;6.80;99.90;;;;;;5083033;28;20676;-83
2020/12/13 07:44:42;;;;;;;11.70;10.50;;;6.80;99.90;;;;;;5086169;28;20628;-83
2020/12/13 07:47:08;;;;;;;15.00;13.60;;;6.80;99.90;;;;;;5081692;28;20630;-84
2020/12/13 07:49:35;;;;;;;12.50;11.30;;;6.80;99.90;;;;;;5085590;28;20634;-83
2020/12/13 07:52:02;;;;;;;10.43;9.43;;;6.80;99.90;;;;;;5083093;28;20717;-84
2020/12/13 07:54:30;;;;;;;8.57;7.10;;;6.80;99.90;;;;;;5086461;28;20660;-83
2020/12/13 07:56:58;;;;;;;7.17;6.57;;;6.80;99.90;;;;;;5088607;28;20627;-82
2020/12/13 07:59:27;;;;;;;6.73;5.90;;;6.80;99.90;;;;;;5085880;28;20664;-84
2020/12/13 08:01:55;;;;;;;6.50;5.93;;;6.80;99.90;;;;;;5086852;28;20661;-83
2020/12/13 08:04:32;;;;;;;6.00;5.50;;;6.80;99.90;;;;;;5088586;28;20667;-83
2020/12/13 08:06:59;;;;;;;7.40;6.70;;;6.80;99.90;;;;;;5091729;28;20619;-83
2020/12/13 08:09:26;;;;;;;5.70;5.20;;;6.80;99.90;;;;;;5090259;28;20629;-83
2020/12/13 08:11:53;;;;;;;5.83;5.23;;;6.90;99.90;;;;;;5089578;28;20954;-82
2020/12/13 08:14:21;;;;;;;5.70;5.20;;;6.90;99.90;;;;;;5089166;28;20652;-84
2020/12/13 08:16:51;;;;;;;4.50;4.10;;;6.90;99.90;;;;;;5089668;28;20669;-83
2020/12/13 08:19:24;;;;;;;4.57;4.13;;;7.00;99.90;;;;;;5091875;28;20629;-83
2020/12/13 08:22:02;;;;;;;5.03;4.60;;;6.90;99.90;;;;;;5086980;28;20648;-84
2020/12/13 08:24:29;;;;;;;4.90;4.40;;;7.00;99.90;;;;;;5088646;28;21415;-84
2020/12/13 08:26:57;;;;;;;5.50;5.00;;;6.90;99.90;;;;;;5089126;28;20634;-82
2020/12/13 08:29:25;;;;;;;4.00;3.70;;;7.10;99.90;;;;;;5089106;28;20629;-83
2020/12/13 08:31:53;;;;;;;3.33;3.03;;;7.10;99.90;;;;;;5089660;28;21167;-83
2020/12/13 08:34:24;;;;;;;2.73;2.53;;;7.00;99.90;;;;;;5089518;28;20654;-83
2020/12/13 08:36:53;;;;;;;2.93;2.63;;;7.00;99.90;;;;;;5090078;28;20624;-82
2020/12/13 08:39:26;;;;;;;3.20;2.90;;;7.10;99.90;;;;;;5087751;28;20653;-82
2020/12/13 08:41:53;;;;;;;5.17;4.67;;;7.10;99.90;;;;;;5086726;28;21130;-84
2020/12/13 08:44:27;;;;;;;4.20;3.83;;;7.10;99.90;;;;;;5089779;28;20659;-82
2020/12/13 08:46:55;;;;;;;3.53;3.17;;;7.20;99.90;;;;;;5087988;28;20632;-83
2020/12/13 08:49:28;;;;;;;2.67;2.43;;;7.10;99.90;;;;;;5088936;28;20626;-83
2020/12/13 08:51:55;;;;;;;3.53;2.73;;;7.10;99.90;;;;;;5088434;28;20627;-83
2020/12/13 08:54:21;;;;;;;2.43;2.23;;;7.20;99.90;;;;;;5085487;28;20666;-83
2020/12/13 08:56:53;;;;;;;2.57;2.37;;;7.20;99.90;;;;;;5086932;28;20602;-83
2020/12/13 08:59:21;;;;;;;4.20;3.80;;;7.30;99.90;;;;;;5088879;28;20608;-82
2020/12/13 09:01:57;;;;;;;5.20;3.80;;;7.30;99.90;;;;;;5088654;28;20662;-84
2020/12/13 09:04:25;;;;;;;3.30;3.00;;;7.40;99.90;;;;;;5084938;28;20714;-83
2020/12/13 09:07:02;;;;;;;4.37;3.77;;;7.40;99.90;;;;;;5087608;28;20618;-82
2020/12/13 09:09:30;;;;;;;5.10;4.03;;;7.40;99.90;;;;;;5083347;28;21204;-83
2020/12/13 09:11:58;;;;;;;4.93;4.53;;;7.40;99.90;;;;;;5085711;28;20982;-84
2020/12/13 09:14:30;;;;;;;4.07;3.77;;;7.40;99.90;;;;;;5086894;28;21289;-82
2020/12/13 09:16:58;;;;;;;7.90;7.27;;;7.40;99.90;;;;;;5085344;28;20636;-83
2020/12/13 09:19:25;;;;;;;7.33;6.83;;;7.50;99.90;;;;;;5087923;28;20638;-83
2020/12/13 09:21:54;;;;;;;6.27;5.77;;;7.60;99.90;;;;;;5086636;28;21020;-84
2020/12/13 09:24:22;;;;;;;4.90;4.60;;;7.40;99.90;;;;;;5088009;28;20667;-83
2020/12/13 09:27:02;;;;;;;5.20;4.70;;;7.50;99.90;;;;;;5087263;28;20660;-82
2020/12/13 09:29:29;;;;;;;4.70;4.30;;;7.50;99.90;;;;;;5083285;28;21420;-83
2020/12/13 09:31:57;;;;;;;7.77;4.70;;;7.50;99.90;;;;;;5080734;28;20606;-81
2020/12/13 09:34:24;;;;;;;5.30;4.80;;;7.60;99.90;;;;;;5114560;27;20664;-82
2020/12/13 09:36:51;;;;;;;5.37;4.90;;;7.60;99.90;;;;;;5084286;28;20621;-85
2020/12/13 09:39:17;;;;;;;6.80;6.30;;;7.50;99.90;;;;;;5088592;28;20628;-84
2020/12/13 09:41:43;;;;;;;5.90;5.50;;;7.50;99.90;;;;;;5076366;28;20683;-82
2020/12/13 09:44:10;;;;;;;4.83;4.50;;;7.60;99.90;;;;;;5083872;28;21259;-83
2020/12/13 09:46:36;;;;;;;5.80;4.90;;;7.60;99.90;;;;;;5087256;28;20644;-83
2020/12/13 09:49:04;;;;;;;4.70;4.40;;;7.60;99.90;;;;;;5085805;28;20634;-82
2020/12/13 09:51:33;;;;;;;4.73;4.33;;;7.60;99.90;;;;;;5084978;28;21597;-89
2020/12/13 09:54:02;;;;;;;7.17;4.30;;;7.60;99.90;;;;;;5090187;28;21098;-89
2020/12/13 09:56:29;;;;;;;5.27;4.80;;;7.70;99.90;;;;;;5081040;28;20644;-87
2020/12/13 09:58:55;;;;;;;4.83;4.43;;;7.80;99.90;;;;;;5084396;28;20626;-88
2020/12/13 10:01:22;;;;;;;6.00;5.50;;;7.80;99.90;;;;;;5090709;28;20638;-87
2020/12/13 10:03:51;;;;;;;5.30;4.73;;;7.90;99.90;;;;;;5092033;28;20663;-89
2020/12/13 10:09:08;;;;;;;5.70;5.20;;;8.10;99.90;;;;;;5092894;28;20598;-88
2020/12/13 10:11:36;;;;;;;5.30;4.80;;;8.20;99.90;;;;;;5092605;28;20746;-88
2020/12/13 10:14:11;;;;;;;5.87;5.33;;;8.30;99.90;;;;;;5098564;28;20654;-90
2020/12/13 10:16:38;;;;;;;5.03;4.63;;;8.30;99.90;;;;;;5103437;28;20624;-89
2020/12/13 10:19:05;;;;;;;5.03;4.63;;;8.40;99.90;;;;;;5107616;28;20628;-89
2020/12/13 10:21:35;;;;;;;4.23;3.93;;;8.50;99.90;;;;;;5112016;28;20623;-89
2020/12/13 10:24:04;;;;;;;7.50;3.43;;;8.60;99.90;;;;;;5111664;28;20664;-90
2020/12/13 10:26:33;;;;;;;3.87;3.30;;;8.70;99.90;;;;;;5113131;28;20631;-90
2020/12/13 10:29:00;;;;;;;3.80;3.37;;;8.90;99.90;;;;;;5111958;28;20597;-90
2020/12/13 10:31:29;;;;;;;3.93;2.93;;;9.00;99.90;;;;;;5112339;28;20683;-89
2020/12/13 10:33:56;;;;;;;3.83;3.47;;;9.00;99.90;;;;;;5111655;28;20656;-90
2020/12/13 10:36:23;;;;;;;3.60;3.30;;;9.00;99.90;;;;;;5111217;28;20620;-89
2020/12/13 10:38:52;;;;;;;3.90;3.47;;;8.90;99.90;;;;;;5106555;28;20647;-89
2020/12/13 10:41:21;;;;;;;3.50;3.20;;;9.00;99.90;;;;;;5104248;28;20674;-89
2020/12/13 10:43:51;;;;;;;3.10;2.90;;;9.00;99.90;;;;;;5103027;28;20657;-88
2020/12/13 10:46:25;;;;;;;4.67;2.70;;;8.90;99.90;;;;;;5114349;28;21440;-90
2020/12/13 10:48:52;;;;;;;3.50;3.20;;;9.00;99.90;;;;;;5113493;28;20635;-89
2020/12/13 10:51:21;;;;;;;3.43;2.70;;;9.10;99.90;;;;;;5110035;28;20578;-89
2020/12/13 10:53:54;;;;;;;2.20;2.00;;;9.00;99.90;;;;;;5100165;28;20677;-90
2020/12/13 10:56:36;;;;;;;3.13;2.93;;;9.20;99.90;;;;;;5104393;28;21238;-89
2020/12/13 10:59:03;;;;;;;2.50;2.30;;;9.20;99.90;;;;;;5115756;28;20628;-89
2020/12/13 11:01:29;;;;;;;3.03;2.50;;;9.30;99.90;;;;;;5098735;28;20630;-89
2020/12/13 11:03:59;;;;;;;2.60;2.40;;;9.30;99.90;;;;;;5095591;28;21204;-87
2020/12/13 11:06:25;;;;;;;2.93;2.40;;;9.40;99.90;;;;;;5092264;28;20678;-87
2020/12/13 11:08:54;;;;;;;6.60;2.73;;;9.60;99.90;;;;;;5092098;28;20631;-88
2020/12/13 11:11:21;;;;;;;3.20;2.90;;;9.70;99.90;;;;;;5091581;28;20629;-88
2020/12/13 11:13:48;;;;;;;2.93;2.63;;;9.80;99.90;;;;;;5093590;28;20658;-87
2020/12/13 11:16:17;;;;;;;2.53;1.97;;;10.30;99.90;;;;;;5089530;28;21177;-86
2020/12/13 11:18:45;;;;;;;2.70;2.40;;;11.00;99.90;;;;;;5090001;28;20731;-88
2020/12/13 11:21:12;;;;;;;1.77;1.67;;;11.80;99.90;;;;;;5091628;28;20745;-88
2020/12/13 11:23:39;;;;;;;3.00;2.00;;;12.20;99.90;;;;;;5092069;28;20687;-86
2020/12/13 11:26:08;;;;;;;2.83;1.40;;;12.40;99.90;;;;;;5095608;28;20635;-86
2020/12/13 11:28:34;;;;;;;1.70;1.60;;;12.40;99.90;;;;;;5092645;28;20640;-87
2020/12/13 11:31:01;;;;;;;1.50;1.30;;;11.90;99.90;;;;;;5091131;28;21065;-86
2020/12/13 11:33:27;;;;;;;2.73;1.17;;;11.40;99.90;;;;;;5091245;28;21233;-86
2020/12/13 11:35:55;;;;;;;1.13;0.70;;;11.10;99.90;;;;;;5089752;28;20614;-87
2020/12/13 11:38:22;;;;;;;1.50;0.93;;;11.30;99.90;;;;;;5093438;28;20678;-86
2020/12/13 11:40:49;;;;;;;2.63;1.00;;;11.30;99.90;;;;;;5092279;28;21332;-87
2020/12/13 11:43:16;;;;;;;1.67;1.00;;;10.90;99.90;;;;;;5094201;28;20678;-87
2020/12/13 11:45:42;;;;;;;1.67;0.80;;;10.60;99.90;;;;;;5094535;28;20624;-87
2020/12/13 11:48:09;;;;;;;2.60;1.13;;;10.60;99.90;;;;;;5093549;28;20642;-88
2020/12/13 11:50:40;;;;;;;1.37;1.13;;;10.40;99.90;;;;;;5090708;28;20640;-87
2020/12/13 11:53:07;;;;;;;1.40;1.17;;;10.30;99.90;;;;;;5092897;28;20635;-86
2020/12/13 11:55:35;;;;;;;2.63;1.20;;;10.20;99.90;;;;;;5093701;28;20644;-89
2020/12/13 11:58:01;;;;;;;2.00;1.30;;;9.90;99.90;;;;;;5091316;28;20622;-86
2020/12/13 12:00:30;;;;;;;1.73;1.03;;;9.50;99.90;;;;;;5088607;28;20634;-85
2020/12/13 12:02:57;;;;;;;1.60;1.50;;;9.30;99.90;;;;;;5089844;28;20626;-87
2020/12/13 12:05:24;;;;;;;2.60;1.20;;;9.40;99.90;;;;;;5090570;28;20624;-88
2020/12/13 12:07:54;;;;;;;1.70;1.47;;;9.30;99.90;;;;;;5088948;28;20621;-88
2020/12/13 12:10:22;;;;;;;2.20;1.53;;;9.40;99.90;;;;;;5090254;28;21184;-88
2020/12/13 12:12:48;;;;;;;1.23;1.13;;;9.30;99.90;;;;;;5090318;28;20696;-87
2020/12/13 12:15:14;;;;;;;2.23;1.50;;;9.30;99.90;;;;;;5091204;28;20669;-88
2020/12/13 12:17:42;;;;;;;4.40;1.37;;;9.30;99.90;;;;;;5090787;28;20624;-89
2020/12/13 12:20:10;;;;;;;2.07;1.60;;;9.40;99.90;;;;;;5089489;28;20630;-89
2020/12/13 12:22:37;;;;;;;6.10;1.60;;;9.10;99.90;;;;;;5089472;28;20762;-88
2020/12/13 12:25:04;;;;;;;1.70;1.43;;;9.10;99.90;;;;;;5089938;28;21334;-87
2020/12/13 12:27:32;;;;;;;2.80;1.63;;;9.00;99.90;;;;;;5088275;28;21026;-89
2020/12/13 12:30:00;;;;;;;1.77;1.67;;;9.00;99.90;;;;;;5089389;28;20730;-89
2020/12/13 12:32:26;;;;;;;2.03;1.40;;;9.00;99.90;;;;;;5087983;28;20617;-89
2020/12/13 12:34:53;;;;;;;2.60;1.50;;;8.90;99.90;;;;;;5089603;28;20681;-88
2020/12/13 12:37:21;;;;;;;2.57;1.87;;;8.90;99.90;;;;;;5091657;28;20632;-89
2020/12/13 12:39:47;;;;;;;2.27;1.60;;;9.00;99.90;;;;;;5086919;28;20690;-87
2020/12/13 12:42:15;;;;;;;3.30;1.60;;;8.90;99.90;;;;;;5092739;28;21482;-89
2020/12/13 12:44:45;;;;;;;2.20;1.73;;;9.00;99.90;;;;;;5092003;28;20646;-90
2020/12/13 12:47:12;;;;;;;2.00;1.80;;;8.80;99.90;;;;;;5094373;28;20629;-90
2020/12/13 12:49:39;;;;;;;2.40;1.93;;;8.80;99.90;;;;;;5088494;28;20634;-86
2020/12/13 12:52:06;;;;;;;2.80;1.87;;;8.90;99.90;;;;;;5089738;28;20624;-87
2020/12/13 12:54:34;;;;;;;3.30;2.80;;;8.90;99.90;;;;;;5091829;28;20646;-86